createdAt,value
2023-02-28T00:02:11.019Z,1.91
2023-02-28T00:07:13.114Z,1.94
2023-02-28T00:12:16.179Z,1.84
2023-02-28T00:17:23.025Z,1.82
2023-02-28T00:22:31.841Z,1.80
2023-02-28T00:27:35.574Z,1.73
2023-02-28T00:32:40.341Z,1.66
2023-02-28T00:37:43.647Z,1.57
2023-02-28T00:42:47.156Z,1.45
2023-02-28T00:47:51.002Z,1.36
2023-02-28T00:52:56.022Z,1.33
2023-02-28T00:57:58.211Z,1.26
2023-02-28T01:03:01.649Z,1.20
2023-02-28T01:08:04.636Z,1.15
2023-02-28T01:13:07.229Z,1.13
2023-02-28T01:18:12.309Z,1.13
2023-02-28T01:23:14.493Z,1.14
2023-02-28T01:28:17.302Z,1.16
2023-02-28T01:33:20.268Z,1.21
2023-02-28T01:38:23.650Z,1.23
2023-02-28T01:43:32.177Z,1.25
2023-02-28T01:48:41.023Z,1.22
2023-02-28T01:53:50.245Z,1.26
2023-02-28T01:58:53.941Z,1.25
2023-02-28T02:04:02.100Z,1.31
2023-02-28T02:09:04.661Z,1.30
2023-02-28T02:14:36.867Z,1.33
2023-02-28T02:20:14.060Z,1.35
2023-02-28T02:25:35.056Z,1.26
2023-02-28T02:31:04.573Z,1.22
2023-02-28T02:36:38.680Z,1.22
2023-02-28T02:41:51.457Z,1.13
2023-02-28T02:47:02.276Z,1.02
2023-02-28T02:52:12.031Z,0.98
2023-02-28T02:57:37.050Z,0.85
2023-02-28T03:02:42.461Z,0.74
2023-02-28T03:07:47.108Z,0.57
2023-02-28T03:13:01.647Z,0.40
2023-02-28T03:18:12.811Z,0.35
2023-02-28T03:23:20.559Z,0.26
2023-02-28T03:28:46.470Z,0.18
2023-02-28T03:33:56.464Z,0.08
2023-02-28T03:39:13.025Z,0.00
2023-02-28T03:44:25.978Z,-0.07
2023-02-28T03:49:33.934Z,-0.16
2023-02-28T03:54:45.503Z,-0.25
2023-02-28T03:59:55.542Z,-0.33
2023-02-28T04:04:57.825Z,-0.36
2023-02-28T04:10:00.293Z,-0.41
2023-02-28T04:15:02.311Z,-0.43
2023-02-28T04:20:10.207Z,-0.46
2023-02-28T04:25:12.789Z,-0.49
2023-02-28T04:30:15.650Z,-0.52
2023-02-28T04:35:18.679Z,-0.53
2023-02-28T04:40:21.180Z,-0.56
2023-02-28T04:45:23.863Z,-0.58
2023-02-28T04:50:26.649Z,-0.65
2023-02-28T04:55:29.134Z,-0.68
2023-02-28T05:00:31.579Z,-0.71
2023-02-28T05:05:33.849Z,-0.77
2023-02-28T05:10:37.279Z,-0.82
2023-02-28T05:15:39.157Z,-0.87
2023-02-28T05:20:41.081Z,-0.94
2023-02-28T05:25:43.400Z,-1.05
2023-02-28T05:30:45.294Z,-1.07
2023-02-28T05:35:48.055Z,-1.01
2023-02-28T05:40:50.450Z,-1.03
2023-02-28T05:45:52.617Z,-1.13
2023-02-28T05:50:54.697Z,-1.08
2023-02-28T05:55:57.907Z,-1.08
2023-02-28T06:01:01.381Z,-1.05
2023-02-28T06:06:03.476Z,-0.97
2023-02-28T06:11:05.732Z,-0.90
2023-02-28T06:16:09.036Z,-0.83
2023-02-28T06:21:11.142Z,-0.89
2023-02-28T06:26:13.132Z,-0.81
2023-02-28T06:31:17.835Z,-0.71
2023-02-28T06:36:19.931Z,-0.70
2023-02-28T06:41:25.130Z,-0.54
2023-02-28T06:46:27.221Z,-0.42
2023-02-28T06:51:29.963Z,-0.36
2023-02-28T06:56:32.335Z,-0.21
2023-02-28T07:01:35.052Z,-0.04
2023-02-28T07:06:39.417Z,0.21
2023-02-28T07:11:43.495Z,0.44
2023-02-28T07:16:46.658Z,0.62
2023-02-28T07:21:48.877Z,0.83
2023-02-28T07:26:50.846Z,0.99
2023-02-28T07:31:54.295Z,1.18
2023-02-28T07:36:56.736Z,1.32
2023-02-28T07:41:58.704Z,1.43
2023-02-28T07:47:01.304Z,1.51
2023-02-28T07:52:05.072Z,1.62
2023-02-28T07:57:07.082Z,1.70
2023-02-28T08:02:14.747Z,1.74
2023-02-28T08:07:18.147Z,1.80
2023-02-28T08:12:20.229Z,1.82
2023-02-28T08:17:22.191Z,1.83
2023-02-28T08:22:24.123Z,1.82
2023-02-28T08:27:26.111Z,1.86
2023-02-28T08:32:30.146Z,2.13
2023-02-28T08:37:32.592Z,2.33
2023-02-28T08:42:34.563Z,2.54
2023-02-28T08:47:36.501Z,2.76
2023-02-28T08:52:39.493Z,2.99
2023-02-28T08:57:50.987Z,3.18
2023-02-28T09:03:02.996Z,3.39
2023-02-28T09:08:05.169Z,3.67
2023-02-28T09:13:07.650Z,4.05
2023-02-28T09:18:09.878Z,4.48
2023-02-28T09:23:13.812Z,4.76
2023-02-28T09:28:18.835Z,4.92
2023-02-28T09:33:22.164Z,4.91
2023-02-28T09:38:24.241Z,4.96
2023-02-28T09:43:33.367Z,4.82
2023-02-28T09:48:41.273Z,4.48
2023-02-28T09:53:45.739Z,4.07
2023-02-28T09:58:59.822Z,3.83
2023-02-28T10:04:09.204Z,3.66
2023-02-28T10:09:25.665Z,3.76
2023-02-28T10:14:30.861Z,4.09
2023-02-28T10:19:43.901Z,4.21
2023-02-28T10:24:49.048Z,4.37
2023-02-28T10:29:53.637Z,4.70
2023-02-28T10:35:08.573Z,5.12
2023-02-28T10:40:36.643Z,5.50
2023-02-28T10:45:39.816Z,5.41
2023-02-28T10:50:48.026Z,5.56
2023-02-28T10:56:07.790Z,6.02
2023-02-28T11:01:16.309Z,6.21
2023-02-28T11:06:32.062Z,6.17
2023-02-28T11:11:44.283Z,6.36
2023-02-28T11:16:46.292Z,6.47
2023-02-28T11:21:57.772Z,6.35
2023-02-28T11:27:00.040Z,5.93
2023-02-28T11:32:14.541Z,5.61
2023-02-28T11:37:19.976Z,5.41
2023-02-28T11:42:46.759Z,5.27
2023-02-28T11:48:07.876Z,5.27
2023-02-28T11:53:35.327Z,5.30
2023-02-28T11:58:56.296Z,5.36
2023-02-28T12:04:11.048Z,5.45
2023-02-28T12:09:16.156Z,5.46
2023-02-28T12:14:56.476Z,5.37
2023-02-28T12:20:15.030Z,5.09
2023-02-28T12:25:29.772Z,5.00
2023-02-28T12:30:54.265Z,5.00
2023-02-28T12:36:00.786Z,5.05
2023-02-28T12:41:21.540Z,4.99
2023-02-28T12:46:51.918Z,4.90
2023-02-28T12:51:54.319Z,4.80
2023-02-28T12:57:19.737Z,4.68
2023-02-28T13:03:01.623Z,4.88
2023-02-28T13:08:41.936Z,5.04
2023-02-28T13:13:46.400Z,4.97
2023-02-28T13:18:49.648Z,4.97
2023-02-28T13:23:59.081Z,4.99
2023-02-28T13:29:11.029Z,4.96
2023-02-28T13:34:17.263Z,5.01
2023-02-28T13:39:40.584Z,5.02
2023-02-28T13:45:27.124Z,4.98
2023-02-28T13:50:39.648Z,4.96
2023-02-28T13:55:54.192Z,4.92
2023-02-28T14:01:07.098Z,4.93
2023-02-28T14:06:11.155Z,4.87
2023-02-28T14:11:45.321Z,4.95
2023-02-28T14:16:51.286Z,4.90
2023-02-28T14:22:23.090Z,4.90
2023-02-28T14:27:37.414Z,4.83
2023-02-28T14:33:10.354Z,4.77
2023-02-28T14:38:25.408Z,4.72
2023-02-28T14:43:29.713Z,4.59
2023-02-28T14:48:32.600Z,4.51
2023-02-28T14:53:38.680Z,4.39
2023-02-28T14:58:41.109Z,4.28
2023-02-28T15:03:45.839Z,4.23
2023-02-28T15:08:48.048Z,4.16
2023-02-28T15:13:53.172Z,4.07
2023-02-28T15:19:00.436Z,4.01
2023-02-28T15:24:34.855Z,3.90
2023-02-28T15:30:10.746Z,3.80
2023-02-28T15:35:41.904Z,3.86
2023-02-28T15:40:57.139Z,3.75
2023-02-28T15:46:07.506Z,3.56
2023-02-28T15:51:23.827Z,3.57
2023-02-28T15:56:30.550Z,3.50
2023-02-28T16:01:40.505Z,3.28
2023-02-28T16:06:45.499Z,3.04
2023-02-28T16:11:55.641Z,2.89
2023-02-28T16:17:06.661Z,3.09
2023-02-28T16:22:10.665Z,3.21
2023-02-28T16:27:23.749Z,3.24
2023-02-28T16:32:25.765Z,3.24
2023-02-28T16:37:28.325Z,3.18
2023-02-28T16:42:32.613Z,3.12
2023-02-28T16:47:35.189Z,3.04
2023-02-28T16:52:37.516Z,2.97
2023-02-28T16:57:41.243Z,2.89
2023-02-28T17:02:44.127Z,2.81
2023-02-28T17:07:47.996Z,2.72
2023-02-28T17:12:50.824Z,2.58
2023-02-28T17:17:52.784Z,2.56
2023-02-28T17:22:55.812Z,2.58
2023-02-28T17:27:58.239Z,2.52
2023-02-28T17:33:00.214Z,2.45
2023-02-28T17:38:02.660Z,2.38
2023-02-28T17:43:05.215Z,2.32
2023-02-28T17:48:07.815Z,2.25
2023-02-28T17:53:09.732Z,2.19
2023-02-28T17:58:13.709Z,2.13
2023-02-28T18:03:16.299Z,2.06
2023-02-28T18:08:18.310Z,2.01
2023-02-28T18:13:20.494Z,1.96
2023-02-28T18:18:22.747Z,1.90
2023-02-28T18:23:25.472Z,1.83
2023-02-28T18:28:28.031Z,1.76
2023-02-28T18:33:30.191Z,1.68
2023-02-28T18:38:34.461Z,1.60
2023-02-28T18:43:38.613Z,1.53
2023-02-28T18:48:41.768Z,1.44
2023-02-28T18:53:44.299Z,1.36
2023-02-28T18:58:46.741Z,1.28
2023-02-28T19:03:50.436Z,1.22
2023-02-28T19:08:59.704Z,1.15
2023-02-28T19:14:02.743Z,1.08
2023-02-28T19:19:05.686Z,1.02
2023-02-28T19:24:07.942Z,0.96
2023-02-28T19:29:10.273Z,0.90
2023-02-28T19:34:12.782Z,0.84
2023-02-28T19:39:15.090Z,0.78
2023-02-28T19:44:17.600Z,0.74
2023-02-28T19:49:19.552Z,0.68
2023-02-28T19:54:22.294Z,0.62
2023-02-28T19:59:35.793Z,0.57
2023-02-28T20:04:41.665Z,0.53
2023-02-28T20:09:45.701Z,0.50
2023-02-28T20:14:49.255Z,0.46
2023-02-28T20:19:51.925Z,0.43
2023-02-28T20:24:54.613Z,0.40
2023-02-28T20:30:09.686Z,0.37
2023-02-28T20:35:11.994Z,0.34
2023-02-28T20:40:14.500Z,0.33
2023-02-28T20:45:17.527Z,0.30
2023-02-28T20:50:20.246Z,0.28
2023-02-28T20:55:22.291Z,0.25
2023-02-28T21:00:26.492Z,0.24
2023-02-28T21:05:29.253Z,0.22
2023-02-28T21:10:32.523Z,0.19
2023-02-28T21:15:38.656Z,0.16
2023-02-28T21:20:40.701Z,0.14
2023-02-28T21:25:43.632Z,0.10
2023-02-28T21:30:45.994Z,0.06
2023-02-28T21:35:48.813Z,0.02
2023-02-28T21:40:51.488Z,-0.03
2023-02-28T21:45:53.998Z,-0.08
2023-02-28T21:51:04.339Z,-0.13
2023-02-28T21:56:11.395Z,-0.18
2023-02-28T22:01:15.409Z,-0.21
2023-02-28T22:06:24.410Z,-0.25
2023-02-28T22:11:27.996Z,-0.27
2023-02-28T22:16:44.168Z,-0.37
2023-02-28T22:21:53.881Z,-0.42
2023-02-28T22:26:56.234Z,-0.46
2023-02-28T22:31:58.441Z,-0.48
2023-02-28T22:37:01.168Z,-0.52
2023-02-28T22:42:03.719Z,-0.53
2023-02-28T22:47:07.412Z,-0.55
2023-02-28T22:52:11.375Z,-0.55
2023-02-28T22:57:14.649Z,-0.53
2023-02-28T23:02:16.667Z,-0.52
2023-02-28T23:07:19.012Z,-0.53
2023-02-28T23:12:21.642Z,-0.52
2023-02-28T23:17:23.912Z,-0.53
2023-02-28T23:22:25.875Z,-0.56
2023-02-28T23:27:28.574Z,-0.60
2023-02-28T23:32:30.949Z,-0.66
2023-02-28T23:37:34.404Z,-0.69
2023-02-28T23:42:37.568Z,-0.71
2023-02-28T23:47:39.549Z,-0.71
2023-02-28T23:52:41.967Z,-0.66
2023-02-28T23:57:44.554Z,-0.64
